createdAt,value
2023-05-05T00:00:56.142Z,11.60
2023-05-05T00:03:24.403Z,11.60
2023-05-05T00:05:54.397Z,11.70
2023-05-05T00:08:22.857Z,11.70
2023-05-05T00:10:51.703Z,11.60
2023-05-05T00:13:20.394Z,11.60
2023-05-05T00:15:49.359Z,11.50
2023-05-05T00:18:19.506Z,11.50
2023-05-05T00:20:48.149Z,11.50
2023-05-05T00:23:16.843Z,11.50
2023-05-05T00:25:44.797Z,11.40
2023-05-05T00:28:14.056Z,11.40
2023-05-05T00:30:43.879Z,11.10
2023-05-05T00:33:12.250Z,11.30
2023-05-05T00:35:44.252Z,11.30
2023-05-05T00:38:12.590Z,11.20
2023-05-05T00:40:40.650Z,11.10
2023-05-05T00:43:08.887Z,11.10
2023-05-05T00:45:40.997Z,11.20
2023-05-05T00:48:10.861Z,11.20
2023-05-05T00:50:39.558Z,11.10
2023-05-05T00:53:08.875Z,11.00
2023-05-05T00:55:41.533Z,11.10
2023-05-05T00:58:10.283Z,11.00
2023-05-05T01:00:41.251Z,11.00
2023-05-05T01:03:09.263Z,11.00
2023-05-05T01:05:43.504Z,11.00
2023-05-05T01:08:19.445Z,10.90
2023-05-05T01:10:52.294Z,10.90
2023-05-05T01:13:24.324Z,10.90
2023-05-05T01:15:57.015Z,10.90
2023-05-05T01:18:29.382Z,10.90
2023-05-05T01:21:00.267Z,10.90
2023-05-05T01:23:41.258Z,10.80
2023-05-05T01:26:27.235Z,10.80
2023-05-05T01:29:17.316Z,10.70
2023-05-05T01:31:51.855Z,10.70
2023-05-05T01:34:24.162Z,10.70
2023-05-05T01:36:56.022Z,10.70
2023-05-05T01:39:25.578Z,11.30
2023-05-05T01:41:55.194Z,10.70
2023-05-05T01:44:23.266Z,10.50
2023-05-05T01:46:54.492Z,10.60
2023-05-05T01:49:22.820Z,10.60
2023-05-05T01:51:52.717Z,10.60
2023-05-05T01:54:21.439Z,10.60
2023-05-05T01:56:50.281Z,10.60
2023-05-05T01:59:18.560Z,10.50
2023-05-05T02:01:48.680Z,10.50
2023-05-05T02:04:22.689Z,10.50
2023-05-05T02:06:54.415Z,10.50
2023-05-05T02:09:22.507Z,10.50
2023-05-05T02:11:50.728Z,10.50
2023-05-05T02:14:20.418Z,10.50
2023-05-05T02:16:48.481Z,10.40
2023-05-05T02:19:19.543Z,10.40
2023-05-05T02:21:47.593Z,10.40
2023-05-05T02:24:16.177Z,10.20
2023-05-05T02:26:45.065Z,10.20
2023-05-05T02:29:17.639Z,10.30
2023-05-05T02:31:47.674Z,10.20
2023-05-05T02:34:20.181Z,10.20
2023-05-05T02:36:52.880Z,10.20
2023-05-05T02:39:22.875Z,10.10
2023-05-05T02:41:52.200Z,10.10
2023-05-05T02:44:20.943Z,10.20
2023-05-05T02:46:48.990Z,10.20
2023-05-05T02:49:18.479Z,10.10
2023-05-05T02:51:46.510Z,10.00
2023-05-05T02:54:14.517Z,10.10
2023-05-05T02:56:47.571Z,10.00
2023-05-05T02:59:17.029Z,9.90
2023-05-05T03:01:57.313Z,9.80
2023-05-05T03:04:28.837Z,9.80
2023-05-05T03:06:58.540Z,9.70
2023-05-05T03:09:28.861Z,9.70
2023-05-05T03:12:00.808Z,9.70
2023-05-05T03:14:36.467Z,9.70
2023-05-05T03:17:05.236Z,9.70
2023-05-05T03:19:35.517Z,9.60
2023-05-05T03:22:06.365Z,9.60
2023-05-05T03:24:34.390Z,9.60
2023-05-05T03:27:03.097Z,9.60
2023-05-05T03:29:31.343Z,9.50
2023-05-05T03:32:00.998Z,9.50
2023-05-05T03:34:29.057Z,9.50
2023-05-05T03:36:58.382Z,9.50
2023-05-05T03:39:26.366Z,9.50
2023-05-05T03:41:54.364Z,9.40
2023-05-05T03:44:22.455Z,9.40
2023-05-05T03:46:52.773Z,9.50
2023-05-05T03:49:22.736Z,9.20
2023-05-05T03:51:50.769Z,9.30
2023-05-05T03:54:20.090Z,9.30
2023-05-05T03:56:50.202Z,9.20
2023-05-05T03:59:18.381Z,9.30
2023-05-05T04:01:46.759Z,9.30
2023-05-05T04:04:14.800Z,9.30
2023-05-05T04:06:42.791Z,9.40
2023-05-05T04:09:12.020Z,9.40
2023-05-05T04:11:52.196Z,9.40
2023-05-05T04:14:20.563Z,9.40
2023-05-05T04:16:50.501Z,9.30
2023-05-05T04:19:18.585Z,9.30
2023-05-05T04:21:46.601Z,9.30
2023-05-05T04:24:14.585Z,9.40
2023-05-05T04:26:44.057Z,9.40
2023-05-05T04:29:12.017Z,9.40
2023-05-05T04:31:40.136Z,9.50
2023-05-05T04:34:08.147Z,9.40
2023-05-05T04:36:39.025Z,9.40
2023-05-05T04:39:08.665Z,9.40
2023-05-05T04:41:38.985Z,9.50
2023-05-05T04:44:08.365Z,9.50
2023-05-05T04:46:36.374Z,9.50
2023-05-05T04:49:05.810Z,9.70
2023-05-05T04:51:33.945Z,9.50
2023-05-05T04:54:01.975Z,9.50
2023-05-05T04:56:31.755Z,9.60
2023-05-05T04:58:59.726Z,9.60
2023-05-05T05:01:29.142Z,9.60
2023-05-05T05:03:57.177Z,9.60
2023-05-05T05:06:25.397Z,9.60
2023-05-05T05:08:53.358Z,9.60
2023-05-05T05:11:21.518Z,9.70
2023-05-05T05:13:51.393Z,9.70
2023-05-05T05:16:19.709Z,9.70
2023-05-05T05:18:49.097Z,9.70
2023-05-05T05:21:17.138Z,9.80
2023-05-05T05:23:45.219Z,9.80
2023-05-05T05:26:13.148Z,9.90
2023-05-05T05:28:41.633Z,9.90
2023-05-05T05:31:09.659Z,9.90
2023-05-05T05:33:37.690Z,9.90
2023-05-05T05:36:07.280Z,10.00
2023-05-05T05:38:35.332Z,10.10
2023-05-05T05:41:06.051Z,10.10
2023-05-05T05:43:34.079Z,10.20
2023-05-05T05:46:02.102Z,10.30
2023-05-05T05:48:30.143Z,10.20
2023-05-05T05:50:58.126Z,10.20
2023-05-05T05:53:27.650Z,10.30
2023-05-05T05:55:55.672Z,10.30
2023-05-05T05:58:23.635Z,10.30
2023-05-05T06:00:51.743Z,10.40
2023-05-05T06:03:20.034Z,10.40
2023-05-05T06:05:48.229Z,10.40
2023-05-05T06:08:16.184Z,10.30
2023-05-05T06:10:45.522Z,10.40
2023-05-05T06:13:13.523Z,10.40
2023-05-05T06:15:41.695Z,10.30
2023-05-05T06:18:12.945Z,10.20
2023-05-05T06:20:43.403Z,10.20
2023-05-05T06:23:12.660Z,10.30
2023-05-05T06:25:40.763Z,10.40
2023-05-05T06:28:10.087Z,10.40
2023-05-05T06:30:38.119Z,10.50
2023-05-05T06:33:06.107Z,10.50
2023-05-05T06:35:34.251Z,10.50
2023-05-05T06:38:02.209Z,10.50
2023-05-05T06:40:30.175Z,10.60
2023-05-05T06:42:58.179Z,10.60
2023-05-05T06:45:31.225Z,10.60
2023-05-05T06:47:59.208Z,10.60
2023-05-05T06:50:27.309Z,10.70
2023-05-05T06:52:55.366Z,10.70
2023-05-05T06:55:25.748Z,10.70
2023-05-05T06:57:53.707Z,10.70
2023-05-05T07:00:22.322Z,10.80
2023-05-05T07:02:51.685Z,10.80
2023-05-05T07:05:19.889Z,10.80
2023-05-05T07:07:54.309Z,10.80
2023-05-05T07:10:22.634Z,10.80
2023-05-05T07:12:51.516Z,10.70
2023-05-05T07:15:27.993Z,10.70
2023-05-05T07:17:59.007Z,10.70
2023-05-05T07:20:27.215Z,10.60
2023-05-05T07:22:55.253Z,10.70
2023-05-05T07:25:26.793Z,10.60
2023-05-05T07:27:54.952Z,10.70
2023-05-05T07:30:25.005Z,10.60
2023-05-05T07:32:53.523Z,10.80
2023-05-05T07:35:23.114Z,10.80
2023-05-05T07:37:51.187Z,10.90
2023-05-05T07:40:19.185Z,11.00
2023-05-05T07:42:48.365Z,11.10
2023-05-05T07:45:16.386Z,11.10
2023-05-05T07:47:44.418Z,11.20
2023-05-05T07:50:12.531Z,11.20
2023-05-05T07:52:46.571Z,11.10
2023-05-05T07:55:17.901Z,11.20
2023-05-05T07:57:46.009Z,11.10
2023-05-05T08:00:14.626Z,11.20
2023-05-05T08:02:44.685Z,11.20
2023-05-05T08:05:12.984Z,11.20
2023-05-05T08:07:42.367Z,11.20
2023-05-05T08:10:13.515Z,11.00
2023-05-05T08:12:41.660Z,11.00
2023-05-05T08:15:10.654Z,11.00
2023-05-05T08:17:46.139Z,11.10
2023-05-05T08:20:23.120Z,11.10
2023-05-05T08:22:52.438Z,11.20
2023-05-05T08:25:20.556Z,11.20
2023-05-05T08:27:48.518Z,11.30
2023-05-05T08:30:30.766Z,11.30
2023-05-05T08:32:59.035Z,11.40
2023-05-05T08:35:27.034Z,11.50
2023-05-05T08:37:58.719Z,11.60
2023-05-05T08:40:30.354Z,11.70
2023-05-05T08:42:58.289Z,11.70
2023-05-05T08:45:27.570Z,11.70
2023-05-05T08:47:57.071Z,11.80
2023-05-05T08:50:28.032Z,11.90
2023-05-05T08:53:06.172Z,12.00
2023-05-05T08:55:36.859Z,12.00
2023-05-05T08:58:05.172Z,12.10
2023-05-05T09:00:33.587Z,12.20
2023-05-05T09:03:16.184Z,12.20
2023-05-05T09:05:44.727Z,12.20
2023-05-05T09:08:14.729Z,12.20
2023-05-05T09:10:43.497Z,12.30
2023-05-05T09:13:11.698Z,12.30
2023-05-05T09:15:41.391Z,12.40
2023-05-05T09:18:12.027Z,12.30
2023-05-05T09:20:40.888Z,12.30
2023-05-05T09:23:09.740Z,12.40
2023-05-05T09:25:42.539Z,12.60
2023-05-05T09:28:11.485Z,12.70
2023-05-05T09:30:40.312Z,12.80
2023-05-05T09:33:08.515Z,12.90
2023-05-05T09:35:49.204Z,12.90
2023-05-05T09:38:17.197Z,13.00
2023-05-05T09:40:50.073Z,13.00
2023-05-05T09:43:18.450Z,13.10
2023-05-05T09:45:48.735Z,13.10
2023-05-05T09:48:26.755Z,13.20
2023-05-05T09:50:55.148Z,13.30
2023-05-05T09:53:23.528Z,13.40
2023-05-05T09:55:56.438Z,13.50
2023-05-05T09:58:25.841Z,13.60
2023-05-05T10:00:54.273Z,13.70
2023-05-05T10:03:22.563Z,13.70
2023-05-05T10:05:54.134Z,13.80
2023-05-05T10:08:22.989Z,13.90
2023-05-05T10:10:52.582Z,13.90
2023-05-05T10:13:22.967Z,14.10
2023-05-05T10:15:51.987Z,14.10
2023-05-05T10:18:22.091Z,14.20
2023-05-05T10:20:53.350Z,14.20
2023-05-05T10:23:23.816Z,14.20
2023-05-05T10:25:54.802Z,14.40
2023-05-05T10:28:32.196Z,14.50
2023-05-05T10:31:02.129Z,14.50
2023-05-05T10:33:37.280Z,14.60
2023-05-05T10:36:07.617Z,14.70
2023-05-05T10:38:36.643Z,14.70
2023-05-05T10:41:04.956Z,14.90
2023-05-05T10:43:34.574Z,15.00
2023-05-05T10:46:05.824Z,15.20
2023-05-05T10:48:36.294Z,15.30
2023-05-05T10:51:10.045Z,15.30
2023-05-05T10:53:42.381Z,15.40
2023-05-05T10:56:15.868Z,15.50
2023-05-05T10:58:59.007Z,15.70
2023-05-05T11:01:33.103Z,15.60
2023-05-05T11:04:20.463Z,15.80
2023-05-05T11:07:06.983Z,15.90
2023-05-05T11:09:42.010Z,16.00
2023-05-05T11:12:13.800Z,16.00
2023-05-05T11:14:43.274Z,16.10
2023-05-05T11:17:26.574Z,16.00
2023-05-05T11:19:54.566Z,16.20
2023-05-05T11:22:22.539Z,16.20
2023-05-05T11:24:50.510Z,16.40
2023-05-05T11:27:18.739Z,16.50
2023-05-05T11:30:05.185Z,16.30
2023-05-05T11:32:34.963Z,16.50
2023-05-05T11:35:03.894Z,16.70
2023-05-05T11:37:31.919Z,16.90
2023-05-05T11:40:04.313Z,17.10
2023-05-05T11:42:32.417Z,17.40
2023-05-05T11:45:00.539Z,17.50
2023-05-05T11:47:29.538Z,17.70
2023-05-05T11:49:59.104Z,17.80
2023-05-05T11:52:28.009Z,18.00
2023-05-05T11:55:04.087Z,18.20
2023-05-05T11:57:33.292Z,18.30
2023-05-05T12:00:02.184Z,18.40
2023-05-05T12:02:36.161Z,18.60
2023-05-05T12:05:06.082Z,18.70
2023-05-05T12:07:34.396Z,18.90
2023-05-05T12:10:02.509Z,19.00
2023-05-05T12:12:40.953Z,19.10
2023-05-05T12:15:09.715Z,19.30
2023-05-05T12:17:42.632Z,19.40
2023-05-05T12:20:13.486Z,19.50
2023-05-05T12:22:41.898Z,19.80
2023-05-05T12:25:11.383Z,20.10
2023-05-05T12:27:39.425Z,20.00
2023-05-05T12:30:15.258Z,20.30
2023-05-05T12:32:43.508Z,20.50
2023-05-05T12:35:13.561Z,20.80
2023-05-05T12:37:41.760Z,20.90
2023-05-05T12:40:31.071Z,21.00
2023-05-05T12:42:59.041Z,21.20
2023-05-05T12:45:27.060Z,21.20
2023-05-05T12:47:55.604Z,21.10
2023-05-05T12:50:32.237Z,21.10
2023-05-05T12:53:00.211Z,21.00
2023-05-05T12:55:39.828Z,21.00
2023-05-05T12:58:07.798Z,20.80
2023-05-05T13:00:35.774Z,20.90
2023-05-05T13:03:04.781Z,21.10
2023-05-05T13:05:36.535Z,21.30
2023-05-05T13:08:04.746Z,21.30
2023-05-05T13:10:32.726Z,21.30
2023-05-05T13:13:00.839Z,21.40
2023-05-05T13:15:31.080Z,21.40
2023-05-05T13:18:02.729Z,21.20
2023-05-05T13:20:30.970Z,21.20
2023-05-05T13:23:00.322Z,21.40
2023-05-05T13:25:28.272Z,21.20
2023-05-05T13:27:56.438Z,21.40
2023-05-05T13:30:24.487Z,21.30
2023-05-05T13:32:52.755Z,21.30
2023-05-05T13:35:20.732Z,21.20
2023-05-05T13:37:48.981Z,21.20
2023-05-05T13:40:18.344Z,21.00
2023-05-05T13:42:46.480Z,20.90
2023-05-05T13:45:17.368Z,20.80
2023-05-05T13:47:45.642Z,20.70
2023-05-05T13:50:13.625Z,20.50
2023-05-05T13:52:41.814Z,20.20
2023-05-05T13:55:11.526Z,20.40
2023-05-05T13:57:40.876Z,20.50
2023-05-05T14:00:09.632Z,20.30
2023-05-05T14:02:37.839Z,20.40
2023-05-05T14:05:06.335Z,20.30
2023-05-05T14:07:34.384Z,20.10
2023-05-05T14:10:04.365Z,20.00
2023-05-05T14:12:32.363Z,20.30
2023-05-05T14:15:01.910Z,20.40
2023-05-05T14:17:31.867Z,20.40
2023-05-05T14:19:59.900Z,20.30
2023-05-05T14:22:28.115Z,20.30
2023-05-05T14:24:59.089Z,20.10
2023-05-05T14:27:27.118Z,20.10
2023-05-05T14:29:55.185Z,20.00
2023-05-05T14:32:27.190Z,19.70
2023-05-05T14:34:55.330Z,19.60
2023-05-05T14:37:23.298Z,19.50
2023-05-05T14:39:54.961Z,19.60
2023-05-05T14:42:22.980Z,19.50
2023-05-05T14:44:50.952Z,19.40
2023-05-05T14:47:19.019Z,19.40
2023-05-05T14:49:48.441Z,19.40
2023-05-05T14:52:16.402Z,19.30
2023-05-05T14:54:44.374Z,19.30
2023-05-05T14:57:12.374Z,19.20
2023-05-05T14:59:40.322Z,19.00
2023-05-05T15:02:08.548Z,19.00
2023-05-05T15:04:36.532Z,19.00
2023-05-05T15:07:09.033Z,18.90
2023-05-05T15:09:41.539Z,18.90
2023-05-05T15:12:09.517Z,18.80
2023-05-05T15:14:38.173Z,18.80
2023-05-05T15:17:06.693Z,18.80
2023-05-05T15:19:34.699Z,18.70
2023-05-05T15:22:02.744Z,18.70
2023-05-05T15:24:32.241Z,18.70
2023-05-05T15:27:00.276Z,18.60
2023-05-05T15:29:28.253Z,18.60
2023-05-05T15:31:56.196Z,18.60
2023-05-05T15:34:28.848Z,18.60
2023-05-05T15:36:59.833Z,18.50
2023-05-05T15:39:27.830Z,18.50
2023-05-05T15:41:57.159Z,18.50
2023-05-05T15:44:27.586Z,18.50
2023-05-05T15:46:55.646Z,18.40
2023-05-05T15:49:23.713Z,18.40
2023-05-05T15:51:51.741Z,18.30
2023-05-05T15:54:20.227Z,18.30
2023-05-05T15:56:48.439Z,18.30
2023-05-05T15:59:19.061Z,17.20
2023-05-05T16:01:47.466Z,18.20
2023-05-05T16:04:15.610Z,18.20
2023-05-05T16:06:43.604Z,18.20
2023-05-05T16:09:11.652Z,18.20
2023-05-05T16:11:39.664Z,18.10
2023-05-05T16:14:07.652Z,18.00
2023-05-05T16:16:37.028Z,17.90
2023-05-05T16:19:05.290Z,17.80
2023-05-05T16:21:33.324Z,17.70
2023-05-05T16:24:01.315Z,17.60
2023-05-05T16:26:29.429Z,17.40
2023-05-05T16:28:57.414Z,17.40
2023-05-05T16:31:27.561Z,17.30
2023-05-05T16:33:57.182Z,17.10
2023-05-05T16:36:26.238Z,17.00
2023-05-05T16:38:54.322Z,16.80
2023-05-05T16:41:22.459Z,16.80
2023-05-05T16:43:50.801Z,16.80
2023-05-05T16:46:19.038Z,16.50
2023-05-05T16:48:47.099Z,16.10
2023-05-05T16:51:19.132Z,17.40
2023-05-05T16:53:48.932Z,15.30
2023-05-05T16:56:17.923Z,14.90
2023-05-05T16:58:46.195Z,14.70
2023-05-05T17:01:14.301Z,14.50
2023-05-05T17:03:42.331Z,14.50
2023-05-05T17:06:11.023Z,14.40
2023-05-05T17:08:40.379Z,14.30
2023-05-05T17:11:11.939Z,14.30
2023-05-05T17:13:40.092Z,14.30
2023-05-05T17:16:10.527Z,14.30
2023-05-05T17:18:38.550Z,14.30
2023-05-05T17:21:08.242Z,14.30
2023-05-05T17:23:36.222Z,14.20
2023-05-05T17:26:09.632Z,14.20
2023-05-05T17:28:40.512Z,14.20
2023-05-05T17:31:08.472Z,14.40
2023-05-05T17:33:36.467Z,14.10
2023-05-05T17:36:04.916Z,14.10
2023-05-05T17:38:32.929Z,14.00
2023-05-05T17:41:00.933Z,14.00
2023-05-05T17:43:30.345Z,14.00
2023-05-05T17:45:58.320Z,14.00
2023-05-05T17:48:27.194Z,14.00
2023-05-05T17:51:00.163Z,14.00
2023-05-05T17:53:28.125Z,14.00
2023-05-05T17:55:56.105Z,13.90
2023-05-05T17:58:24.159Z,13.90
2023-05-05T18:00:53.574Z,13.90
2023-05-05T18:03:21.713Z,13.90
2023-05-05T18:05:49.836Z,13.90
2023-05-05T18:08:18.483Z,13.90
2023-05-05T18:10:46.487Z,13.80
2023-05-05T18:13:17.106Z,13.90
2023-05-05T18:15:45.163Z,13.90
2023-05-05T18:18:14.622Z,13.80
2023-05-05T18:20:43.552Z,13.90
2023-05-05T18:23:12.898Z,13.90
2023-05-05T18:25:41.547Z,14.00
2023-05-05T18:28:09.576Z,14.00
2023-05-05T18:30:37.625Z,14.10
2023-05-05T18:33:05.675Z,14.00
2023-05-05T18:35:35.075Z,14.00
2023-05-05T18:38:03.698Z,14.00
2023-05-05T18:40:31.783Z,14.00
2023-05-05T18:42:59.787Z,14.70
2023-05-05T18:45:27.857Z,14.10
2023-05-05T18:47:56.346Z,14.10
2023-05-05T18:50:24.460Z,14.10
2023-05-05T18:52:53.780Z,14.10
2023-05-05T18:55:26.926Z,14.10
2023-05-05T18:57:56.189Z,14.10
2023-05-05T19:00:24.560Z,14.10
2023-05-05T19:02:55.500Z,14.10
2023-05-05T19:05:23.571Z,14.20
2023-05-05T19:07:51.533Z,14.10
2023-05-05T19:10:20.957Z,14.10
2023-05-05T19:12:48.934Z,14.10
2023-05-05T19:15:20.477Z,14.00
2023-05-05T19:17:48.474Z,14.00
2023-05-05T19:20:16.600Z,14.00
2023-05-05T19:22:44.578Z,14.10
2023-05-05T19:25:14.336Z,14.10
2023-05-05T19:27:43.808Z,14.00
2023-05-05T19:30:12.071Z,14.00
2023-05-05T19:32:40.077Z,14.00
2023-05-05T19:35:10.442Z,14.00
2023-05-05T19:37:38.636Z,14.00
2023-05-05T19:40:13.187Z,14.00
2023-05-05T19:42:45.216Z,14.00
2023-05-05T19:45:16.298Z,14.00
2023-05-05T19:47:44.429Z,13.80
2023-05-05T19:50:15.136Z,13.80
2023-05-05T19:52:43.126Z,13.90
2023-05-05T19:55:12.938Z,14.10
2023-05-05T19:57:41.083Z,14.40
2023-05-05T20:00:11.805Z,13.90
2023-05-05T20:02:40.099Z,14.00
2023-05-05T20:05:08.465Z,14.00
2023-05-05T20:07:36.461Z,14.00
2023-05-05T20:10:04.680Z,14.00
2023-05-05T20:12:34.298Z,14.00
2023-05-05T20:15:03.124Z,14.00
2023-05-05T20:17:32.509Z,14.00
2023-05-05T20:20:03.542Z,14.00
2023-05-05T20:22:34.968Z,14.00
2023-05-05T20:25:02.967Z,14.00
2023-05-05T20:27:31.107Z,14.00
2023-05-05T20:29:59.060Z,14.00
2023-05-05T20:32:27.117Z,14.00
2023-05-05T20:34:58.033Z,13.90
2023-05-05T20:37:27.068Z,13.90
2023-05-05T20:39:56.681Z,13.90
2023-05-05T20:42:25.629Z,13.90
2023-05-05T20:44:53.666Z,13.90
2023-05-05T20:47:21.682Z,13.90
2023-05-05T20:49:49.720Z,13.90
2023-05-05T20:52:21.608Z,13.80
2023-05-05T20:54:51.012Z,13.80
2023-05-05T20:57:19.077Z,13.80
2023-05-05T20:59:49.084Z,13.80
2023-05-05T21:02:19.305Z,13.70
2023-05-05T21:04:47.322Z,13.70
2023-05-05T21:07:15.422Z,13.70
2023-05-05T21:09:46.352Z,13.60
2023-05-05T21:12:14.342Z,13.60
2023-05-05T21:14:45.776Z,13.60
2023-05-05T21:17:14.997Z,13.60
2023-05-05T21:19:56.985Z,13.50
2023-05-05T21:22:24.995Z,13.60
2023-05-05T21:24:54.972Z,13.60
2023-05-05T21:27:23.252Z,13.50
2023-05-05T21:29:51.684Z,13.50
2023-05-05T21:32:19.729Z,13.50
2023-05-05T21:34:47.781Z,13.50
2023-05-05T21:37:15.755Z,13.50
2023-05-05T21:39:45.207Z,13.50
2023-05-05T21:42:14.549Z,13.40
2023-05-05T21:44:56.450Z,13.40
2023-05-05T21:47:30.487Z,13.30
2023-05-05T21:49:58.981Z,13.30
2023-05-05T21:52:28.379Z,13.30
2023-05-05T21:54:56.391Z,13.30
2023-05-05T21:57:25.761Z,13.30
2023-05-05T21:59:56.547Z,13.30
2023-05-05T22:02:24.640Z,13.30
2023-05-05T22:04:52.753Z,13.30
2023-05-05T22:07:24.843Z,13.30
2023-05-05T22:09:53.005Z,13.20
2023-05-05T22:12:22.998Z,13.20
2023-05-05T22:14:52.335Z,13.20
2023-05-05T22:17:20.333Z,13.10
2023-05-05T22:19:48.279Z,13.10
2023-05-05T22:22:17.421Z,13.00
2023-05-05T22:24:45.464Z,13.10
2023-05-05T22:27:13.511Z,13.00
2023-05-05T22:29:41.451Z,13.00
2023-05-05T22:32:11.313Z,13.00
2023-05-05T22:34:39.329Z,13.00
2023-05-05T22:37:07.414Z,13.00
2023-05-05T22:39:35.484Z,13.00
2023-05-05T22:42:03.815Z,13.00
2023-05-05T22:44:31.916Z,12.90
2023-05-05T22:47:00.011Z,12.90
2023-05-05T22:49:29.816Z,12.90
2023-05-05T22:51:58.420Z,11.50
2023-05-05T22:54:26.405Z,12.80
2023-05-05T22:56:54.442Z,12.80
2023-05-05T22:59:22.498Z,12.80
2023-05-05T23:01:50.494Z,12.70
2023-05-05T23:04:18.609Z,12.70
2023-05-05T23:06:47.931Z,12.70
2023-05-05T23:09:15.938Z,12.60
2023-05-05T23:11:43.926Z,12.60
2023-05-05T23:14:13.851Z,12.50
2023-05-05T23:16:44.691Z,12.50
2023-05-05T23:19:13.334Z,12.40
2023-05-05T23:21:52.083Z,12.40
2023-05-05T23:24:22.489Z,12.40
2023-05-05T23:26:51.869Z,12.40
2023-05-05T23:29:20.038Z,12.40
2023-05-05T23:31:47.993Z,12.30
2023-05-05T23:34:16.204Z,12.30
2023-05-05T23:36:46.881Z,12.30
2023-05-05T23:39:14.873Z,11.60
2023-05-05T23:41:44.211Z,12.40
2023-05-05T23:44:12.166Z,12.30
2023-05-05T23:46:40.233Z,12.30
2023-05-05T23:49:08.326Z,12.30
2023-05-05T23:51:36.271Z,12.30
2023-05-05T23:54:04.297Z,12.20
2023-05-05T23:56:32.236Z,12.30
2023-05-05T23:59:01.600Z,12.30
